Terminal Aerodrome Forecast
Issued by NWS Glasgow, MT

Home | Current Version | Previous Version | Text Only | Print | Product List | Glossary On
Versions: 1 2 3 4 5 6 7 8 9 10 11 12 13 14 15 16 17
180
FTUS45 KGGW 040520
TAFGGW
TAF
KGGW 040520Z 0406/0506 27006KT P6SM SCT080
     FM041200 24005KT P6SM BKN025
     FM050000 18008KT P6SM VCSH OVC025
     FM050500 30005KT P6SM VCSH BKN020=

USA.gov is the U.S. government's official web portal to all federal, state and local government web resources and services.